createdAt,value
2023-01-12T00:00:35.064Z,941.8
2023-01-12T00:01:35.644Z,941.76
2023-01-12T00:02:36.413Z,941.77
2023-01-12T00:03:36.827Z,941.73
2023-01-12T00:04:37.860Z,941.76
2023-01-12T00:05:38.087Z,941.71
2023-01-12T00:06:38.376Z,941.73
2023-01-12T00:07:38.588Z,941.7
2023-01-12T00:08:39.200Z,941.75
2023-01-12T00:09:40.124Z,941.71
2023-01-12T00:10:40.497Z,941.69
2023-01-12T00:11:40.872Z,941.68
2023-01-12T00:12:41.159Z,941.74
2023-01-12T00:13:41.377Z,941.68
2023-01-12T00:14:41.689Z,941.73
2023-01-12T00:15:42.239Z,941.72
2023-01-12T00:16:43.026Z,941.74
2023-01-12T00:17:43.242Z,941.77
2023-01-12T00:18:44.242Z,941.8
2023-01-12T00:19:44.898Z,941.75
2023-01-12T00:20:45.212Z,941.78
2023-01-12T00:21:45.875Z,941.8
2023-01-12T00:22:46.092Z,941.84
2023-01-12T00:23:46.291Z,941.79
2023-01-12T00:24:47.236Z,941.8
2023-01-12T00:25:47.442Z,941.86
2023-01-12T00:26:48.090Z,941.86
2023-01-12T00:27:48.647Z,941.81
2023-01-12T00:28:49.428Z,941.84
2023-01-12T00:29:49.858Z,941.82
2023-01-12T00:30:50.763Z,941.84
2023-01-12T00:31:51.438Z,941.82
2023-01-12T00:32:52.372Z,941.81
2023-01-12T00:33:53.305Z,941.88
2023-01-12T00:34:54.244Z,941.85
2023-01-12T00:35:55.155Z,941.83
2023-01-12T00:36:55.644Z,941.84
2023-01-12T00:37:55.899Z,941.87
2023-01-12T00:38:56.623Z,941.79
2023-01-12T00:40:02.164Z,941.74
2023-01-12T00:40:57.515Z,941.77
2023-01-12T00:41:58.036Z,941.73
2023-01-12T00:42:59.000Z,941.68
2023-01-12T00:43:59.922Z,941.66
2023-01-12T00:45:00.272Z,941.68
2023-01-12T00:46:00.939Z,941.61
2023-01-12T00:47:01.346Z,941.55
2023-01-12T00:48:01.984Z,941.46
2023-01-12T00:49:02.185Z,941.41
2023-01-12T00:50:03.154Z,941.43
2023-01-12T00:51:03.580Z,941.46
2023-01-12T00:52:04.487Z,941.44
2023-01-12T00:53:04.628Z,941.42
2023-01-12T00:54:05.554Z,941.42
2023-01-12T00:55:06.226Z,941.43
2023-01-12T00:56:06.410Z,941.43
2023-01-12T00:57:07.387Z,941.43
2023-01-12T00:58:07.642Z,941.44
2023-01-12T00:59:07.973Z,941.43
2023-01-12T01:00:08.365Z,941.4
2023-01-12T01:01:08.656Z,941.45
2023-01-12T01:02:09.163Z,941.34
2023-01-12T01:03:09.367Z,941.33
2023-01-12T01:04:10.007Z,941.39
2023-01-12T01:05:10.207Z,941.42
2023-01-12T01:06:10.487Z,941.37
2023-01-12T01:07:11.103Z,941.4
2023-01-12T01:08:12.017Z,941.31
2023-01-12T01:09:12.474Z,941.34
2023-01-12T01:10:13.094Z,941.36
2023-01-12T01:11:14.041Z,941.38
2023-01-12T01:12:14.959Z,941.43
2023-01-12T01:13:15.570Z,941.43
2023-01-12T01:14:15.774Z,941.49
2023-01-12T01:15:16.064Z,941.56
2023-01-12T01:16:16.442Z,941.49
2023-01-12T01:17:16.944Z,941.53
2023-01-12T01:18:17.431Z,941.53
2023-01-12T01:19:18.153Z,941.52
2023-01-12T01:20:19.141Z,941.5
2023-01-12T01:21:19.353Z,941.46
2023-01-12T01:22:19.552Z,941.44
2023-01-12T01:23:20.505Z,941.43
2023-01-12T01:24:21.419Z,941.45
2023-01-12T01:25:22.379Z,941.44
2023-01-12T01:26:23.013Z,941.49
2023-01-12T01:27:23.207Z,941.51
2023-01-12T01:28:23.804Z,941.49
2023-01-12T01:29:24.660Z,941.49
2023-01-12T01:30:24.917Z,941.5
2023-01-12T01:31:25.233Z,941.43
2023-01-12T01:32:25.919Z,941.45
2023-01-12T01:33:26.115Z,941.44
2023-01-12T01:34:27.049Z,941.5
2023-01-12T01:35:27.262Z,941.51
2023-01-12T01:36:27.614Z,941.53
2023-01-12T01:37:27.829Z,941.58
2023-01-12T01:38:28.043Z,941.59
2023-01-12T01:39:28.326Z,941.54
2023-01-12T01:40:28.530Z,941.58
2023-01-12T01:41:29.458Z,941.57
2023-01-12T01:42:30.342Z,941.59
2023-01-12T01:43:30.878Z,941.48
2023-01-12T01:44:31.850Z,941.45
2023-01-12T01:45:32.445Z,941.42
2023-01-12T01:46:32.715Z,941.42
2023-01-12T01:47:33.216Z,941.44
2023-01-12T01:48:33.416Z,941.39
2023-01-12T01:49:33.724Z,941.37
2023-01-12T01:50:34.428Z,941.36
2023-01-12T01:51:34.644Z,941.3
2023-01-12T01:52:35.567Z,941.25
2023-01-12T01:53:36.473Z,941.25
2023-01-12T01:54:36.833Z,941.24
2023-01-12T01:55:37.776Z,941.3
2023-01-12T01:56:38.410Z,941.28
2023-01-12T01:57:38.747Z,941.3
2023-01-12T01:58:39.288Z,941.3
2023-01-12T01:59:39.590Z,941.3
2023-01-12T02:00:39.856Z,941.23
2023-01-12T02:01:40.957Z,941.19
2023-01-12T02:02:41.471Z,941.18
2023-01-12T02:03:42.026Z,941.14
2023-01-12T02:04:42.950Z,941.12
2023-01-12T02:05:43.161Z,941.08
2023-01-12T02:06:43.789Z,941.06
2023-01-12T02:07:44.724Z,941.03
2023-01-12T02:08:45.646Z,941.01
2023-01-12T02:09:46.009Z,941
2023-01-12T02:10:46.496Z,940.98
2023-01-12T02:11:47.150Z,941
2023-01-12T02:12:47.660Z,940.96
2023-01-12T02:13:48.370Z,940.98
2023-01-12T02:14:49.927Z,941.04
2023-01-12T02:15:49.710Z,941.09
2023-01-12T02:16:49.804Z,941.06
2023-01-12T02:17:50.459Z,941.1
2023-01-12T02:18:51.390Z,941.1
2023-01-12T02:19:51.818Z,941.1
2023-01-12T02:20:52.751Z,941.11
2023-01-12T02:21:53.678Z,941.04
2023-01-12T02:22:54.603Z,941.04
2023-01-12T02:23:55.086Z,941.03
2023-01-12T02:24:55.298Z,940.95
2023-01-12T02:25:56.247Z,940.94
2023-01-12T02:26:57.154Z,940.9
2023-01-12T02:27:57.343Z,940.9
2023-01-12T02:28:58.301Z,940.93
2023-01-12T02:29:59.343Z,940.92
2023-01-12T02:30:59.656Z,940.93
2023-01-12T02:32:00.585Z,940.93
2023-01-12T02:33:01.079Z,940.97
2023-01-12T02:34:01.999Z,941
2023-01-12T02:35:02.919Z,940.93
2023-01-12T02:36:03.430Z,940.91
2023-01-12T02:37:03.760Z,940.88
2023-01-12T02:38:04.685Z,940.92
2023-01-12T02:39:04.883Z,940.91
2023-01-12T02:40:05.620Z,940.9
2023-01-12T02:41:06.285Z,940.9
2023-01-12T02:42:07.209Z,940.88
2023-01-12T02:43:07.454Z,940.87
2023-01-12T02:44:07.736Z,940.85
2023-01-12T02:45:08.685Z,940.83
2023-01-12T02:46:09.313Z,940.8
2023-01-12T02:47:10.286Z,940.82
2023-01-12T02:48:10.491Z,940.84
2023-01-12T02:49:10.691Z,940.85
2023-01-12T02:50:11.302Z,940.8
2023-01-12T02:51:11.552Z,940.83
2023-01-12T02:52:12.058Z,940.8
2023-01-12T02:53:12.983Z,940.82
2023-01-12T02:54:13.895Z,940.8
2023-01-12T02:55:14.283Z,940.82
2023-01-12T02:56:14.483Z,940.76
2023-01-12T02:57:14.978Z,940.73
2023-01-12T02:58:15.328Z,940.73
2023-01-12T02:59:16.005Z,940.73
2023-01-12T03:00:16.578Z,940.71
2023-01-12T03:01:17.094Z,940.72
2023-01-12T03:02:17.806Z,940.71
2023-01-12T03:03:18.793Z,940.71
2023-01-12T03:04:18.856Z,940.72
2023-01-12T03:05:19.378Z,940.71
2023-01-12T03:06:20.315Z,940.72
2023-01-12T03:07:20.505Z,940.76
2023-01-12T03:08:21.157Z,940.71
2023-01-12T03:09:21.346Z,940.72
2023-01-12T03:10:22.417Z,940.74
2023-01-12T03:11:23.040Z,940.76
2023-01-12T03:12:23.525Z,940.76
2023-01-12T03:13:24.430Z,940.74
2023-01-12T03:14:24.967Z,940.73
2023-01-12T03:15:25.456Z,940.78
2023-01-12T03:16:25.820Z,940.78
2023-01-12T03:17:25.940Z,940.8
2023-01-12T03:18:26.853Z,940.78
2023-01-12T03:19:27.073Z,940.81
2023-01-12T03:20:27.510Z,940.83
2023-01-12T03:21:28.441Z,940.86
2023-01-12T03:22:28.658Z,940.85
2023-01-12T03:23:29.732Z,940.9
2023-01-12T03:24:29.958Z,940.89
2023-01-12T03:25:30.167Z,940.86
2023-01-12T03:26:31.237Z,940.87
2023-01-12T03:27:32.270Z,940.84
2023-01-12T03:28:32.479Z,940.82
2023-01-12T03:29:33.445Z,940.79
2023-01-12T03:30:34.500Z,940.79
2023-01-12T03:31:34.820Z,940.77
2023-01-12T03:32:35.207Z,940.73
2023-01-12T03:33:35.846Z,940.68
2023-01-12T03:34:36.354Z,940.73
2023-01-12T03:35:36.552Z,940.72
2023-01-12T03:36:36.741Z,940.72
2023-01-12T03:37:36.974Z,940.72
2023-01-12T03:38:37.196Z,940.76
2023-01-12T03:39:37.388Z,940.8
2023-01-12T03:40:37.808Z,940.81
2023-01-12T03:41:38.004Z,940.8
2023-01-12T03:42:38.508Z,940.83
2023-01-12T03:43:39.128Z,940.78
2023-01-12T03:44:40.192Z,940.76
2023-01-12T03:45:40.832Z,940.79
2023-01-12T03:46:41.838Z,940.79
2023-01-12T03:47:42.683Z,940.9
2023-01-12T03:48:42.884Z,940.81
2023-01-12T03:49:43.380Z,940.85
2023-01-12T03:50:43.839Z,940.86
2023-01-12T03:51:44.779Z,940.89
2023-01-12T03:52:45.414Z,940.86
2023-01-12T03:53:46.348Z,940.86
2023-01-12T03:54:47.021Z,940.85
2023-01-12T03:55:47.239Z,940.81
2023-01-12T03:56:47.440Z,940.81
2023-01-12T03:57:48.358Z,940.8
2023-01-12T03:58:49.276Z,940.75
2023-01-12T03:59:49.519Z,940.76
2023-01-12T04:00:49.967Z,940.77
2023-01-12T04:01:50.160Z,940.8
2023-01-12T04:02:50.868Z,940.84
2023-01-12T04:03:51.955Z,940.77
2023-01-12T04:04:52.631Z,940.77
2023-01-12T04:05:52.842Z,940.76
2023-01-12T04:06:53.380Z,940.74
2023-01-12T04:07:54.203Z,940.76
2023-01-12T04:08:55.137Z,940.72
2023-01-12T04:09:55.783Z,940.7
2023-01-12T04:10:56.212Z,940.71
2023-01-12T04:11:56.853Z,940.71
2023-01-12T04:12:57.359Z,940.69
2023-01-12T04:13:57.562Z,940.64
2023-01-12T04:14:58.527Z,940.69
2023-01-12T04:15:59.486Z,940.59
2023-01-12T04:17:00.214Z,940.64
2023-01-12T04:18:00.626Z,940.7
2023-01-12T04:19:01.530Z,940.7
2023-01-12T04:20:02.182Z,940.71
2023-01-12T04:21:02.911Z,940.73
2023-01-12T04:22:03.847Z,940.71
2023-01-12T04:23:04.491Z,940.65
2023-01-12T04:24:05.567Z,940.67
2023-01-12T04:25:07.993Z,940.63
2023-01-12T04:26:06.883Z,940.65
2023-01-12T04:27:07.818Z,940.68
2023-01-12T04:28:08.025Z,940.65
2023-01-12T04:29:08.960Z,940.61
2023-01-12T04:30:09.995Z,940.6
2023-01-12T04:31:10.356Z,940.63
2023-01-12T04:32:11.396Z,940.58
2023-01-12T04:33:11.618Z,940.57
2023-01-12T04:34:12.176Z,940.6
2023-01-12T04:35:13.120Z,940.57
2023-01-12T04:36:13.624Z,940.51
2023-01-12T04:37:14.579Z,940.51
2023-01-12T04:38:15.075Z,940.52
2023-01-12T04:39:16.002Z,940.48
2023-01-12T04:40:16.195Z,940.42
2023-01-12T04:41:16.890Z,940.38
2023-01-12T04:42:17.798Z,940.36
2023-01-12T04:43:18.003Z,940.34
2023-01-12T04:44:18.955Z,940.32
2023-01-12T04:45:19.640Z,940.31
2023-01-12T04:46:20.022Z,940.29
2023-01-12T04:47:20.745Z,940.35
2023-01-12T04:48:21.261Z,940.37
2023-01-12T04:49:21.895Z,940.37
2023-01-12T04:50:22.526Z,940.37
2023-01-12T04:51:22.961Z,940.4
2023-01-12T04:52:23.601Z,940.38
2023-01-12T04:53:24.642Z,940.48
2023-01-12T04:54:25.175Z,940.53
2023-01-12T04:55:25.817Z,940.56
2023-01-12T04:56:26.307Z,940.54
2023-01-12T04:57:27.250Z,940.5
2023-01-12T04:58:28.183Z,940.47
2023-01-12T04:59:28.390Z,940.54
2023-01-12T05:00:29.396Z,940.53
2023-01-12T05:01:29.581Z,940.58
2023-01-12T05:02:30.377Z,940.59
2023-01-12T05:03:30.882Z,940.58
2023-01-12T05:04:31.467Z,940.59
2023-01-12T05:05:31.993Z,940.59
2023-01-12T05:06:32.902Z,940.5
2023-01-12T05:07:33.099Z,940.49
2023-01-12T05:08:33.293Z,940.44
2023-01-12T05:09:33.503Z,940.46
2023-01-12T05:10:34.437Z,940.46
2023-01-12T05:11:35.036Z,940.43
2023-01-12T05:12:35.247Z,940.43
2023-01-12T05:13:36.162Z,940.48
2023-01-12T05:14:36.367Z,940.52
2023-01-12T05:15:36.898Z,940.53
2023-01-12T05:16:37.154Z,940.52
2023-01-12T05:17:38.167Z,940.53
2023-01-12T05:18:38.652Z,940.56
2023-01-12T05:19:39.564Z,940.55
2023-01-12T05:20:39.789Z,940.56
2023-01-12T05:21:40.800Z,940.58
2023-01-12T05:22:41.005Z,940.59
2023-01-12T05:23:41.732Z,940.62
2023-01-12T05:24:42.338Z,940.57
2023-01-12T05:25:42.962Z,940.62
2023-01-12T05:26:43.607Z,940.64
2023-01-12T05:27:43.821Z,940.62
2023-01-12T05:28:44.848Z,940.64
2023-01-12T05:29:44.853Z,940.61
2023-01-12T05:30:45.113Z,940.55
2023-01-12T05:31:45.629Z,940.49
2023-01-12T05:32:46.177Z,940.47
2023-01-12T05:33:46.390Z,940.41
2023-01-12T05:34:47.334Z,940.42
2023-01-12T05:35:47.809Z,940.43
2023-01-12T05:36:48.296Z,940.51
2023-01-12T05:37:48.487Z,940.46
2023-01-12T05:38:49.562Z,940.46
2023-01-12T05:39:50.513Z,940.43
2023-01-12T05:40:51.504Z,940.44
2023-01-12T05:41:52.206Z,940.4
2023-01-12T05:42:52.554Z,940.42
2023-01-12T05:43:53.252Z,940.43
2023-01-12T05:44:53.475Z,940.41
2023-01-12T05:45:54.459Z,940.44
2023-01-12T05:46:54.912Z,940.42
2023-01-12T05:47:55.225Z,940.43
2023-01-12T05:48:56.206Z,940.42
2023-01-12T05:49:56.692Z,940.47
2023-01-12T05:50:57.648Z,940.46
2023-01-12T05:51:58.187Z,940.48
2023-01-12T05:52:58.423Z,940.46
2023-01-12T05:53:59.063Z,940.5
2023-01-12T05:54:59.728Z,940.47
2023-01-12T05:56:00.154Z,940.46
2023-01-12T05:57:01.073Z,940.46
2023-01-12T05:58:01.285Z,940.46
2023-01-12T05:59:01.779Z,940.44
2023-01-12T06:00:02.712Z,940.42
2023-01-12T06:01:03.004Z,940.35
2023-01-12T06:02:03.827Z,940.33
2023-01-12T06:03:04.352Z,940.36
2023-01-12T06:04:04.721Z,940.4
2023-01-12T06:05:05.021Z,940.36
2023-01-12T06:06:06.007Z,940.42
2023-01-12T06:07:06.957Z,940.32
2023-01-12T06:08:08.034Z,940.3
2023-01-12T06:09:08.236Z,940.3
2023-01-12T06:10:08.892Z,940.24
2023-01-12T06:11:09.576Z,940.22
2023-01-12T06:12:10.107Z,940.24
2023-01-12T06:13:10.585Z,940.29
2023-01-12T06:14:11.252Z,940.3
2023-01-12T06:15:11.616Z,940.28
2023-01-12T06:16:12.676Z,940.28
2023-01-12T06:17:13.272Z,940.26
2023-01-12T06:18:13.698Z,940.28
2023-01-12T06:19:13.919Z,940.3
2023-01-12T06:20:14.146Z,940.33
2023-01-12T06:21:14.503Z,940.28
2023-01-12T06:22:15.499Z,940.34
2023-01-12T06:23:15.697Z,940.29
2023-01-12T06:24:15.792Z,940.28
2023-01-12T06:25:16.771Z,940.29
2023-01-12T06:26:17.733Z,940.26
2023-01-12T06:27:17.956Z,940.28
2023-01-12T06:28:18.874Z,940.29
2023-01-12T06:29:19.515Z,940.27
2023-01-12T06:30:20.003Z,940.24
2023-01-12T06:31:20.390Z,940.29
2023-01-12T06:32:20.856Z,940.25
2023-01-12T06:33:21.782Z,940.32
2023-01-12T06:34:22.693Z,940.38
2023-01-12T06:35:23.632Z,940.4
2023-01-12T06:36:24.540Z,940.4
2023-01-12T06:37:24.754Z,940.37
2023-01-12T06:38:25.234Z,940.43
2023-01-12T06:39:25.871Z,940.43
2023-01-12T06:40:26.390Z,940.45
2023-01-12T06:41:27.065Z,940.49
2023-01-12T06:42:27.529Z,940.47
2023-01-12T06:43:28.167Z,940.51
2023-01-12T06:44:29.112Z,940.51
2023-01-12T06:45:29.335Z,940.53
2023-01-12T06:46:29.674Z,940.56
2023-01-12T06:47:30.239Z,940.5
2023-01-12T06:48:38.606Z,940.5
2023-01-12T06:49:31.551Z,940.54
2023-01-12T06:50:32.220Z,940.53
2023-01-12T06:51:32.844Z,940.54
2023-01-12T06:52:33.218Z,940.56
2023-01-12T06:53:33.443Z,940.6
2023-01-12T06:54:34.360Z,940.6
2023-01-12T06:55:34.858Z,940.63
2023-01-12T06:56:35.071Z,940.62
2023-01-12T06:57:35.998Z,940.55
2023-01-12T06:58:36.220Z,940.59
2023-01-12T06:59:38.835Z,940.65
2023-01-12T07:00:37.249Z,940.61
2023-01-12T07:01:38.330Z,940.66
2023-01-12T07:02:38.583Z,940.66
2023-01-12T07:03:39.168Z,940.72
2023-01-12T07:04:40.189Z,940.74
2023-01-12T07:05:40.284Z,940.72
2023-01-12T07:06:40.804Z,940.72
2023-01-12T07:07:41.736Z,940.73
2023-01-12T07:08:41.947Z,940.78
2023-01-12T07:09:42.880Z,940.77
2023-01-12T07:10:43.583Z,940.78
2023-01-12T07:11:44.510Z,940.78
2023-01-12T07:12:44.940Z,940.77
2023-01-12T07:13:45.424Z,940.74
2023-01-12T07:14:46.080Z,940.77
2023-01-12T07:15:47.034Z,940.76
2023-01-12T07:16:47.417Z,940.8
2023-01-12T07:17:47.907Z,940.83
2023-01-12T07:18:48.485Z,940.85
2023-01-12T07:19:49.416Z,940.84
2023-01-12T07:20:50.033Z,940.88
2023-01-12T07:21:50.561Z,940.85
2023-01-12T07:22:51.317Z,940.84
2023-01-12T07:23:51.826Z,940.85
2023-01-12T07:24:52.044Z,940.9
2023-01-12T07:25:52.769Z,940.88
2023-01-12T07:26:53.708Z,940.84
2023-01-12T07:27:54.632Z,940.87
2023-01-12T07:28:55.299Z,940.88
2023-01-12T07:29:55.494Z,940.83
2023-01-12T07:30:56.132Z,940.78
2023-01-12T07:31:56.655Z,940.86
2023-01-12T07:32:57.002Z,940.88
2023-01-12T07:33:57.597Z,940.83
2023-01-12T07:34:58.534Z,940.78
2023-01-12T07:35:59.205Z,940.73
2023-01-12T07:36:59.349Z,940.79
2023-01-12T07:38:00.001Z,940.88
2023-01-12T07:39:00.349Z,940.85
2023-01-12T07:40:01.301Z,940.85
2023-01-12T07:41:02.238Z,940.79
2023-01-12T07:42:02.607Z,940.77
2023-01-12T07:43:03.025Z,940.81
2023-01-12T07:44:03.748Z,940.92
2023-01-12T07:45:04.101Z,940.81
2023-01-12T07:46:04.894Z,940.73
2023-01-12T07:47:05.412Z,940.72
2023-01-12T07:48:06.373Z,940.74
2023-01-12T07:49:06.966Z,940.83
2023-01-12T07:50:07.980Z,940.8
2023-01-12T07:51:08.202Z,940.73
2023-01-12T07:52:08.441Z,940.72
2023-01-12T07:53:08.899Z,940.7
2023-01-12T07:54:09.943Z,940.8
2023-01-12T07:55:10.164Z,940.76
2023-01-12T07:56:11.133Z,940.63
2023-01-12T07:57:12.080Z,940.68
2023-01-12T07:58:13.012Z,940.68
2023-01-12T07:59:13.941Z,940.74
2023-01-12T08:00:14.888Z,940.75
2023-01-12T08:01:15.431Z,940.75
2023-01-12T08:02:16.284Z,940.76
2023-01-12T08:03:16.554Z,940.75
2023-01-12T08:04:17.564Z,940.76
2023-01-12T08:05:17.882Z,940.77
2023-01-12T08:06:18.528Z,940.79
2023-01-12T08:07:19.211Z,940.75
2023-01-12T08:08:19.415Z,940.74
2023-01-12T08:09:20.082Z,940.75
2023-01-12T08:10:20.299Z,940.77
2023-01-12T08:11:20.865Z,940.76
2023-01-12T08:12:21.128Z,940.8
2023-01-12T08:13:21.618Z,940.84
2023-01-12T08:14:21.839Z,940.82
2023-01-12T08:15:22.112Z,940.84
2023-01-12T08:16:22.428Z,940.8
2023-01-12T08:17:22.735Z,940.76
2023-01-12T08:18:23.233Z,940.77
2023-01-12T08:19:23.820Z,940.78
2023-01-12T08:20:24.313Z,940.75
2023-01-12T08:21:24.590Z,940.74
2023-01-12T08:22:24.807Z,940.68
2023-01-12T08:23:25.570Z,940.67
2023-01-12T08:24:25.666Z,940.63
2023-01-12T08:25:25.946Z,940.63
2023-01-12T08:26:26.153Z,940.61
2023-01-12T08:27:26.355Z,940.58
2023-01-12T08:28:27.271Z,940.6
2023-01-12T08:29:27.490Z,940.64
2023-01-12T08:30:28.008Z,940.54
2023-01-12T08:31:28.506Z,940.57
2023-01-12T08:32:29.082Z,940.57
2023-01-12T08:33:29.972Z,940.63
2023-01-12T08:34:30.635Z,940.67
2023-01-12T08:35:30.860Z,940.59
2023-01-12T08:36:31.370Z,940.61
2023-01-12T08:37:32.396Z,940.64
2023-01-12T08:38:33.048Z,940.69
2023-01-12T08:39:33.983Z,940.69
2023-01-12T08:40:34.634Z,940.68
2023-01-12T08:41:34.879Z,940.65
2023-01-12T08:42:35.364Z,940.61
2023-01-12T08:43:36.459Z,940.61
2023-01-12T08:44:36.556Z,940.61
2023-01-12T08:45:36.784Z,940.59
2023-01-12T08:46:37.458Z,940.56
2023-01-12T08:47:38.319Z,940.63
2023-01-12T08:48:38.532Z,940.61
2023-01-12T08:49:39.229Z,940.61
2023-01-12T08:50:39.733Z,940.56
2023-01-12T08:51:39.965Z,940.59
2023-01-12T08:52:40.892Z,940.57
2023-01-12T08:53:41.527Z,940.56
2023-01-12T08:54:41.728Z,940.54
2023-01-12T08:55:42.000Z,940.53
2023-01-12T08:56:42.255Z,940.48
2023-01-12T08:57:42.787Z,940.51
2023-01-12T08:58:43.300Z,940.45
2023-01-12T08:59:43.856Z,940.45
2023-01-12T09:00:44.221Z,940.43
2023-01-12T09:01:45.124Z,940.46
2023-01-12T09:02:46.005Z,940.48
2023-01-12T09:03:46.793Z,940.46
2023-01-12T09:04:47.108Z,940.55
2023-01-12T09:05:47.606Z,940.52
2023-01-12T09:06:47.841Z,940.58
2023-01-12T09:07:48.015Z,940.59
2023-01-12T09:08:48.243Z,940.57
2023-01-12T09:09:49.198Z,940.55
2023-01-12T09:10:49.415Z,940.5
2023-01-12T09:11:49.905Z,940.49
2023-01-12T09:12:50.425Z,940.52
2023-01-12T09:13:50.791Z,940.54
2023-01-12T09:14:51.046Z,940.56
2023-01-12T09:16:01.277Z,940.57
2023-01-12T09:16:52.346Z,940.56
2023-01-12T09:17:52.929Z,940.53
2023-01-12T09:18:53.452Z,940.52
2023-01-12T09:19:53.764Z,940.45
2023-01-12T09:20:54.022Z,940.45
2023-01-12T09:21:54.381Z,940.45
2023-01-12T09:22:55.342Z,940.5
2023-01-12T09:23:55.646Z,940.46
2023-01-12T09:24:56.095Z,940.45
2023-01-12T09:25:56.770Z,940.44
2023-01-12T09:26:57.735Z,940.43
2023-01-12T09:27:57.940Z,940.47
2023-01-12T09:28:58.861Z,940.5
2023-01-12T09:29:59.094Z,940.53
2023-01-12T09:30:59.821Z,940.59
2023-01-12T09:32:00.630Z,940.59
2023-01-12T09:33:01.235Z,940.55
2023-01-12T09:34:01.882Z,940.51
2023-01-12T09:35:02.509Z,940.54
2023-01-12T09:36:02.749Z,940.57
2023-01-12T09:37:03.452Z,940.58
2023-01-12T09:38:03.681Z,940.54
2023-01-12T09:39:04.574Z,940.53
2023-01-12T09:40:05.399Z,940.62
2023-01-12T09:41:05.616Z,940.58
2023-01-12T09:42:06.547Z,940.48
2023-01-12T09:43:06.786Z,940.43
2023-01-12T09:44:07.553Z,940.43
2023-01-12T09:45:08.201Z,940.37
2023-01-12T09:46:08.481Z,940.32
2023-01-12T09:47:08.708Z,940.29
2023-01-12T09:48:09.283Z,940.29
2023-01-12T09:49:09.666Z,940.3
2023-01-12T09:50:10.589Z,940.26
2023-01-12T09:51:11.061Z,940.26
2023-01-12T09:52:11.980Z,940.24
2023-01-12T09:53:12.214Z,940.24
2023-01-12T09:54:13.258Z,940.24
2023-01-12T09:55:13.878Z,940.16
2023-01-12T09:56:14.870Z,940.2
2023-01-12T09:57:28.252Z,940.16
2023-01-12T09:58:15.792Z,940.13
2023-01-12T09:59:18.353Z,940.1
2023-01-12T10:00:16.245Z,940.07
2023-01-12T10:01:28.125Z,940.09
2023-01-12T10:02:17.267Z,940.07
2023-01-12T10:03:17.439Z,940.04
2023-01-12T10:04:18.161Z,940.02
2023-01-12T10:05:19.109Z,940.02
2023-01-12T10:06:19.787Z,940.02
2023-01-12T10:07:20.739Z,940.05
2023-01-12T10:08:20.952Z,939.98
2023-01-12T10:09:21.178Z,939.97
2023-01-12T10:10:21.520Z,939.98
2023-01-12T10:11:22.474Z,939.97
2023-01-12T10:12:22.691Z,940.01
2023-01-12T10:13:23.189Z,940.01
2023-01-12T10:14:24.260Z,940.02
2023-01-12T10:15:25.190Z,939.91
2023-01-12T10:16:25.591Z,939.93
2023-01-12T10:17:25.880Z,939.87
2023-01-12T10:18:26.154Z,939.83
2023-01-12T10:19:26.923Z,939.88
2023-01-12T10:20:27.511Z,939.8
2023-01-12T10:21:28.584Z,939.82
2023-01-12T10:22:29.124Z,939.85
2023-01-12T10:23:30.092Z,939.82
2023-01-12T10:24:30.417Z,939.77
2023-01-12T10:25:30.913Z,939.72
2023-01-12T10:26:31.171Z,939.71
2023-01-12T10:27:32.092Z,939.69
2023-01-12T10:28:32.308Z,939.66
2023-01-12T10:29:33.282Z,939.66
2023-01-12T10:30:33.938Z,939.66
2023-01-12T10:31:35.028Z,939.63
2023-01-12T10:32:41.809Z,939.63
2023-01-12T10:33:36.423Z,939.62
2023-01-12T10:34:36.781Z,939.59
2023-01-12T10:35:37.371Z,939.71
2023-01-12T10:36:38.283Z,939.61
2023-01-12T10:37:38.620Z,939.65
2023-01-12T10:38:39.564Z,939.62
2023-01-12T10:39:39.907Z,939.58
2023-01-12T10:40:40.155Z,939.58
2023-01-12T10:41:40.375Z,939.58
2023-01-12T10:42:41.013Z,939.51
2023-01-12T10:43:41.282Z,939.5
2023-01-12T10:44:42.040Z,939.46
2023-01-12T10:45:42.311Z,939.44
2023-01-12T10:46:42.811Z,939.42
2023-01-12T10:47:43.024Z,939.4
2023-01-12T10:48:43.587Z,939.37
2023-01-12T10:49:44.258Z,939.29
2023-01-12T10:50:44.857Z,939.27
2023-01-12T10:51:45.798Z,939.28
2023-01-12T10:52:46.726Z,939.25
2023-01-12T10:53:46.959Z,939.21
2023-01-12T10:54:47.363Z,939.21
2023-01-12T10:55:47.876Z,939.2
2023-01-12T10:56:48.092Z,939.26
2023-01-12T10:57:49.033Z,939.28
2023-01-12T10:58:49.246Z,939.24
2023-01-12T10:59:49.752Z,939.24
2023-01-12T11:00:50.384Z,939.27
2023-01-12T11:01:51.240Z,939.15
2023-01-12T11:02:52.081Z,939.14
2023-01-12T11:03:52.950Z,939.12
2023-01-12T11:04:53.005Z,939.1
2023-01-12T11:05:53.574Z,939.08
2023-01-12T11:06:54.079Z,939.13
2023-01-12T11:07:54.336Z,939.06
2023-01-12T11:08:54.479Z,939.09
2023-01-12T11:09:54.901Z,939.09
2023-01-12T11:10:55.916Z,939.09
2023-01-12T11:11:56.892Z,939.08
2023-01-12T11:12:57.143Z,939.06
2023-01-12T11:13:57.369Z,939.12
2023-01-12T11:14:58.198Z,939.12
2023-01-12T11:15:59.155Z,939.13
2023-01-12T11:17:00.300Z,939.14
2023-01-12T11:18:00.517Z,939.13
2023-01-12T11:19:01.046Z,939.08
2023-01-12T11:20:01.578Z,939.1
2023-01-12T11:21:02.285Z,939.07
2023-01-12T11:22:02.789Z,939.12
2023-01-12T11:23:03.868Z,939.08
2023-01-12T11:24:04.151Z,939.16
2023-01-12T11:25:04.493Z,939.15
2023-01-12T11:26:05.244Z,939.1
2023-01-12T11:27:05.846Z,939.09
2023-01-12T11:28:06.111Z,939.08
2023-01-12T11:29:06.464Z,939.06
2023-01-12T11:30:07.379Z,939.05
2023-01-12T11:31:07.668Z,939.02
2023-01-12T11:32:08.044Z,939.06
2023-01-12T11:33:08.328Z,939.08
2023-01-12T11:34:09.303Z,939.07
2023-01-12T11:35:09.951Z,939.06
2023-01-12T11:36:10.234Z,939.09
2023-01-12T11:37:10.733Z,939.05
2023-01-12T11:38:10.914Z,938.99
2023-01-12T11:39:11.165Z,938.96
2023-01-12T11:40:11.691Z,938.9
2023-01-12T11:41:12.745Z,938.88
2023-01-12T11:42:13.789Z,938.87
2023-01-12T11:43:14.086Z,938.87
2023-01-12T11:44:14.590Z,938.9
2023-01-12T11:45:15.492Z,938.95
2023-01-12T11:46:15.778Z,938.92
2023-01-12T11:47:16.594Z,938.95
2023-01-12T11:48:17.101Z,939.02
2023-01-12T11:49:17.633Z,939.11
2023-01-12T11:50:18.295Z,939.1
2023-01-12T11:51:19.158Z,939.15
2023-01-12T11:52:19.491Z,939.16
2023-01-12T11:53:19.746Z,939.16
2023-01-12T11:54:20.296Z,939.09
2023-01-12T11:55:20.992Z,939.11
2023-01-12T11:56:21.220Z,939.05
2023-01-12T11:57:21.440Z,939.08
2023-01-12T11:58:21.668Z,939.1
2023-01-12T11:59:22.188Z,939.07
2023-01-12T12:00:23.122Z,939.08
2023-01-12T12:01:24.117Z,939.08
2023-01-12T12:02:24.257Z,939.03
2023-01-12T12:03:24.589Z,938.97
2023-01-12T12:04:24.823Z,938.93
2023-01-12T12:05:25.868Z,938.87
2023-01-12T12:06:26.473Z,938.86
2023-01-12T12:07:27.015Z,938.91
2023-01-12T12:08:27.523Z,938.9
2023-01-12T12:09:27.773Z,938.87
2023-01-12T12:10:28.007Z,938.83
2023-01-12T12:11:28.981Z,938.88
2023-01-12T12:12:29.667Z,938.87
2023-01-12T12:13:30.648Z,938.92
2023-01-12T12:14:31.645Z,938.91
2023-01-12T12:15:32.125Z,938.9
2023-01-12T12:16:32.917Z,938.86
2023-01-12T12:17:33.901Z,938.85
2023-01-12T12:18:34.773Z,938.85
2023-01-12T12:19:35.796Z,938.84
2023-01-12T12:20:36.050Z,938.8
2023-01-12T12:21:36.621Z,938.76
2023-01-12T12:22:36.848Z,938.79
2023-01-12T12:23:37.475Z,938.8
2023-01-12T12:24:37.702Z,938.8
2023-01-12T12:25:38.529Z,938.81
2023-01-12T12:26:38.742Z,938.78
2023-01-12T12:27:39.025Z,938.73
2023-01-12T12:28:39.518Z,938.7
2023-01-12T12:29:41.174Z,938.7
2023-01-12T12:30:41.212Z,938.75
2023-01-12T12:31:41.289Z,938.76
2023-01-12T12:32:42.102Z,938.83
2023-01-12T12:33:42.357Z,938.83
2023-01-12T12:34:43.349Z,938.82
2023-01-12T12:35:43.734Z,938.85
2023-01-12T12:36:44.338Z,938.88
2023-01-12T12:37:44.565Z,938.86
2023-01-12T12:38:45.487Z,938.85